createdAt,value
2023-03-23T15:57:57.968Z,99062.09
2023-03-23T16:03:03.473Z,99060.71
2023-03-23T16:08:11.986Z,99061.13
2023-03-23T16:13:15.083Z,99063.74
2023-03-23T16:18:22.001Z,99064.84
2023-03-23T16:23:24.995Z,99075.02
2023-03-23T16:28:28.087Z,99072.43
2023-03-23T16:33:31.536Z,99072.27
2023-03-23T16:38:49.827Z,99070.71
2023-03-23T16:43:54.621Z,99085.25
2023-03-23T16:48:57.733Z,99100.61
2023-03-23T16:54:01.043Z,99100.89
2023-03-23T16:59:04.228Z,99107.11
2023-03-23T17:04:07.254Z,99101.65
2023-03-23T17:09:10.265Z,99091.56
2023-03-23T17:14:13.575Z,99083.91
2023-03-23T17:19:16.996Z,99092.91
2023-03-23T17:24:20.208Z,99104.45
2023-03-23T17:29:23.889Z,99114.36
2023-03-23T17:34:26.939Z,99112.52
2023-03-23T17:39:31.981Z,99109.89
2023-03-23T17:44:46.072Z,99112.84
2023-03-23T17:49:49.167Z,99113.44
2023-03-23T17:54:54.118Z,99112.11
2023-03-23T17:59:57.358Z,99106.52
2023-03-23T18:05:00.638Z,99113.81
2023-03-23T18:10:06.205Z,99115.84
2023-03-23T18:15:11.140Z,99115.81
2023-03-23T18:20:14.577Z,99118.98
2023-03-23T18:25:17.804Z,99119.05
2023-03-23T18:30:21.225Z,99121.95
2023-03-23T18:35:24.314Z,99125.70
2023-03-23T18:40:27.428Z,99120.88
2023-03-23T18:45:30.666Z,99120.90
2023-03-23T18:50:33.984Z,99117.79
2023-03-23T18:55:37.057Z,99114.52
2023-03-23T19:00:41.141Z,99119.85
2023-03-23T19:05:45.558Z,99128.31
2023-03-23T19:10:48.845Z,99130.33
2023-03-23T19:15:52.966Z,99125.30
2023-03-23T19:21:13.013Z,99135.45
2023-03-23T19:26:28.863Z,99134.98
2023-03-23T19:31:32.024Z,99126.03
2023-03-23T19:36:37.033Z,99135.79
2023-03-23T19:41:41.736Z,99153.09
2023-03-23T19:46:45.475Z,99156.75
2023-03-23T19:51:49.058Z,99169.71
2023-03-23T19:56:52.493Z,99175.79
2023-03-23T20:01:55.695Z,99171.08
2023-03-23T20:06:59.294Z,99171.96
2023-03-23T20:12:02.482Z,99183.67
2023-03-23T20:17:09.896Z,99211.17
2023-03-23T20:22:14.567Z,99222.19
2023-03-23T20:27:18.244Z,99216.84
2023-03-23T20:32:21.497Z,99225.20
2023-03-23T20:37:26.249Z,99234.44
2023-03-23T20:42:29.761Z,99240.28
2023-03-23T20:47:33.003Z,99241.76
2023-03-23T20:52:37.107Z,99246.87
2023-03-23T20:57:40.420Z,99248.48
2023-03-23T21:02:43.987Z,99260.56
2023-03-23T21:07:48.994Z,99262.80
2023-03-23T21:12:51.996Z,99253.83
2023-03-23T21:17:55.660Z,99252.84
2023-03-23T21:22:59.484Z,99247.75
2023-03-23T21:28:04.392Z,99252.72
2023-03-23T21:33:08.597Z,99261.34
2023-03-23T21:38:14.489Z,99277.05
2023-03-23T21:43:17.501Z,99279.78
2023-03-23T21:48:22.249Z,99274.06
2023-03-23T21:53:27.209Z,99272.58
2023-03-23T21:58:30.721Z,99280.62
2023-03-23T22:03:35.401Z,99279.61
2023-03-23T22:08:40.444Z,99257.40
2023-03-23T22:13:43.639Z,99244.63
2023-03-23T22:18:48.274Z,99236.89
2023-03-23T22:23:51.792Z,99233.08
2023-03-23T22:28:56.031Z,99224.59
2023-03-23T22:33:59.038Z,99242.57
2023-03-23T22:39:03.061Z,99248.90
2023-03-23T22:44:11.685Z,99254.52
2023-03-23T22:49:14.837Z,99256.79
2023-03-23T22:54:17.929Z,99262.02
2023-03-23T22:59:21.652Z,99262.54
2023-03-23T23:04:24.808Z,99258.00
2023-03-23T23:09:27.874Z,99250.15
2023-03-23T23:14:31.294Z,99250.58
2023-03-23T23:19:34.295Z,99249.91
2023-03-23T23:24:37.505Z,99251.21
2023-03-23T23:29:40.719Z,99249.45
2023-03-23T23:34:43.621Z,99245.63
2023-03-23T23:39:47.212Z,99249.48
2023-03-23T23:44:50.171Z,99249.64
2023-03-23T23:49:53.354Z,99245.25
2023-03-23T23:54:56.774Z,99249.33
2023-03-23T23:59:59.983Z,99255.95
